Belvue, Kansas
Current Conditions -  °F | °C
As of 12:52 PM on Wednesday 26 Nov 2014 (Local Time) from KMHK Reporting Station
Overcast Overcast  
Wind Chill: 32°   Ceiling: 2700
Heat Index: 37°   Visibility: 10mi
Dew Point: 25°   Wind: 7mph
Humidity: 62%   Direction: 340°NNW
Pressure: 30.17"   Gusts: 24mph
Location:  39.22°N, 96.18°W
Report Text: KMHK 261852Z 34006G21KT 10SM OVC027 03/M04 A3017 RMK AO2 SLP221 T00281039
Loading
Personal Weather Stations






























Interactive Weather Map New forecast layout! Learn more

10-Day Weather Forecast

Advertisements
Track Severe Weather on mobile